Time;durP1;ratioP1;P1;durP2;ratioP2;P2;SDS_P1;SDS_P2;PMS_P1;PMS_P2;Temp;Humidity;BMP_temperature;BMP_pressure;BME280_temperature;BME280_humidity;BME280_pressure;Samples;Min_cycle;Max_cycle;Signal;HPM_P1;HPM_P2
2021/10/10 00:02:28;;;;;;;12.88;9.77;;;;;;;;;;5092641;28;20206;-86
2021/10/10 00:05:05;;;;;;;15.88;11.05;;;6.20;99.90;;;;;;5092777;28;20282;-85
2021/10/10 00:07:42;;;;;;;11.75;10.55;;;6.10;99.90;;;;;;5091804;28;20210;-86
2021/10/10 00:10:16;;;;;;;15.23;11.02;;;6.00;99.90;;;;;;5092364;28;20214;-86
2021/10/10 00:12:49;;;;;;;14.18;10.70;;;6.20;99.90;;;;;;5092295;28;20207;-85
2021/10/10 00:15:34;;;;;;;12.27;10.88;;;;;;;;;;5092130;28;20297;-85
2021/10/10 00:18:14;;;;;;;14.82;10.65;;;6.20;99.90;;;;;;5091753;28;20206;-85
2021/10/10 00:20:52;;;;;;;13.73;10.77;;;6.10;99.90;;;;;;5092723;28;20595;-86
2021/10/10 00:23:37;;;;;;;13.50;11.00;;;6.30;99.90;;;;;;5091089;28;20206;-85
2021/10/10 00:26:10;;;;;;;11.20;9.90;;;6.10;99.90;;;;;;5090732;28;20205;-85
2021/10/10 00:28:49;;;;;;;9.50;8.50;;;6.40;99.90;;;;;;5091219;28;20285;-85
2021/10/10 00:31:33;;;;;;;14.68;10.90;;;6.10;99.90;;;;;;5091064;28;20275;-85
2021/10/10 00:34:16;;;;;;;12.85;11.27;;;6.30;99.90;;;;;;5071633;28;20282;-85
2021/10/10 00:36:53;;;;;;;15.68;10.35;;;6.20;99.90;;;;;;5071139;28;20206;-85
2021/10/10 00:39:31;;;;;;;12.25;10.93;;;6.10;99.90;;;;;;5071238;28;20362;-86
2021/10/10 00:42:09;;;;;;;16.52;11.52;;;5.80;99.90;;;;;;5071789;28;20721;-85
2021/10/10 00:44:49;;;;;;;13.82;10.52;;;5.80;99.90;;;;;;5071017;28;20199;-85
2021/10/10 00:47:27;;;;;;;14.65;11.48;;;5.80;99.90;;;;;;5071029;28;20202;-85
2021/10/10 00:49:58;;;;;;;15.48;11.38;;;;;;;;;;5071197;28;20246;-85
2021/10/10 00:52:39;;;;;;;12.05;10.70;;;5.90;99.90;;;;;;5071874;28;20602;-85
2021/10/10 00:55:27;;;;;;;13.70;10.52;;;5.90;99.90;;;;;;5070820;28;20191;-85
2021/10/10 00:58:16;;;;;;;12.80;11.23;;;6.10;99.90;;;;;;5069459;28;20297;-85
2021/10/10 01:00:57;;;;;;;13.55;11.50;;;5.90;99.90;;;;;;5070399;28;20288;-85
2021/10/10 01:03:43;;;;;;;16.08;11.40;;;5.70;99.90;;;;;;5069804;28;20752;-85
2021/10/10 01:06:19;;;;;;;17.70;10.38;;;5.40;99.90;;;;;;5070461;28;20741;-84
2021/10/10 01:08:59;;;;;;;13.63;11.90;;;5.60;99.90;;;;;;5070735;28;20711;-85
2021/10/10 01:11:38;;;;;;;11.57;10.38;;;5.60;99.90;;;;;;5070198;28;20657;-84
2021/10/10 01:14:13;;;;;;;16.27;11.32;;;5.40;99.90;;;;;;5070164;28;20206;-85
2021/10/10 01:16:59;;;;;;;15.55;12.30;;;6.00;99.90;;;;;;5069224;28;20317;-85
2021/10/10 01:19:45;;;;;;;13.52;10.30;;;5.40;99.90;;;;;;5070441;28;20566;-84
2021/10/10 01:22:33;;;;;;;15.65;11.30;;;5.40;99.90;;;;;;5068729;28;20756;-85
2021/10/10 01:25:11;;;;;;;15.73;10.73;;;5.60;99.90;;;;;;5070723;28;20209;-85
2021/10/10 01:27:55;;;;;;;13.73;10.88;;;5.90;99.90;;;;;;5069904;28;20199;-85
2021/10/10 01:30:43;;;;;;;14.60;11.35;;;;;;;;;;5069205;28;20219;-85
2021/10/10 01:33:29;;;;;;;13.20;10.75;;;5.80;99.90;;;;;;5083912;28;20234;-85
2021/10/10 01:36:10;;;;;;;12.18;10.63;;;7.30;99.90;;;;;;5090873;28;20206;-85
2021/10/10 01:38:46;;;;;;;16.08;11.13;;;5.70;99.90;;;;;;5089660;28;20274;-85
2021/10/10 01:41:31;;;;;;;13.00;11.45;;;5.70;99.90;;;;;;5090027;28;20197;-84
2021/10/10 01:44:14;;;;;;;14.10;10.75;;;5.90;99.90;;;;;;5090117;28;20729;-85
2021/10/10 01:46:51;;;;;;;12.65;10.48;;;5.80;99.90;;;;;;5089568;28;20194;-85
2021/10/10 01:49:27;;;;;;;12.07;10.23;;;;;;;;;;5090206;28;20202;-85
2021/10/10 01:52:14;;;;;;;15.48;11.95;;;;;;;;;;5089220;28;20329;-85
2021/10/10 01:54:49;;;;;;;15.45;9.80;;;5.40;99.90;;;;;;5090723;28;20198;-85
2021/10/10 01:57:22;;;;;;;13.93;11.65;;;5.50;99.90;;;;;;5089930;28;20210;-85
2021/10/10 02:00:01;;;;;;;15.63;10.30;;;5.60;99.90;;;;;;5090775;28;20252;-85
2021/10/10 02:02:47;;;;;;;13.68;10.45;;;5.60;99.90;;;;;;5090751;28;20202;-85
2021/10/10 02:05:23;;;;;;;14.30;10.40;;;5.20;99.90;;;;;;5090278;28;20209;-85
2021/10/10 02:08:00;;;;;;;15.13;10.95;;;;;;;;;;5089179;28;20679;-85
2021/10/10 02:10:43;;;;;;;14.18;10.63;;;5.10;99.90;;;;;;5090241;28;20303;-85
2021/10/10 02:13:21;;;;;;;12.82;10.10;;;4.80;99.90;;;;;;5090311;28;20201;-85
2021/10/10 02:15:55;;;;;;;13.05;9.43;;;4.80;99.90;;;;;;5090617;28;20234;-84
2021/10/10 02:18:32;;;;;;;15.65;11.75;;;4.70;99.90;;;;;;5089423;28;20199;-84
2021/10/10 02:21:10;;;;;;;17.00;11.93;;;;;;;;;;5090321;28;20228;-85
2021/10/10 02:23:51;;;;;;;11.93;10.15;;;5.00;99.90;;;;;;5089995;28;20198;-85
2021/10/10 02:26:26;;;;;;;11.90;9.57;;;5.00;99.90;;;;;;5089648;28;20198;-84
2021/10/10 02:28:59;;;;;;;15.35;10.40;;;5.30;99.90;;;;;;5089806;28;20201;-85
2021/10/10 02:31:34;;;;;;;12.93;10.27;;;4.90;99.90;;;;;;5090206;28;20317;-85
2021/10/10 02:34:07;;;;;;;11.13;9.25;;;5.30;99.90;;;;;;5090042;28;20286;-84
2021/10/10 02:36:39;;;;;;;13.32;11.02;;;;;;;;;;5089306;28;20198;-85
2021/10/10 02:39:14;;;;;;;12.45;10.30;;;5.10;99.90;;;;;;5089813;28;20186;-84
2021/10/10 02:41:50;;;;;;;13.13;9.52;;;5.00;99.90;;;;;;5089866;28;20213;-84
2021/10/10 02:44:37;;;;;;;14.52;10.32;;;5.20;99.90;;;;;;5089799;28;20538;-84
2021/10/10 02:47:17;;;;;;;12.60;10.07;;;5.00;99.90;;;;;;5089515;28;20208;-84
2021/10/10 02:49:55;;;;;;;13.90;10.15;;;4.90;99.90;;;;;;5089444;28;20289;-84
2021/10/10 02:52:33;;;;;;;13.52;9.18;;;5.00;99.90;;;;;;5090308;28;20229;-84
2021/10/10 02:55:17;;;;;;;14.35;10.27;;;4.90;99.90;;;;;;5090016;28;20203;-84
2021/10/10 02:57:54;;;;;;;15.52;9.52;;;4.70;99.90;;;;;;5089366;28;20293;-85
2021/10/10 03:00:31;;;;;;;13.15;9.77;;;4.70;99.90;;;;;;5088935;28;20201;-84
2021/10/10 03:03:06;;;;;;;15.45;10.75;;;4.20;99.90;;;;;;5093287;28;20205;-84
2021/10/10 03:05:53;;;;;;;15.05;10.10;;;4.60;99.90;;;;;;5092774;28;20285;-85
2021/10/10 03:08:39;;;;;;;13.52;10.45;;;4.80;99.90;;;;;;5092641;28;20641;-84
2021/10/10 03:11:26;;;;;;;14.65;10.85;;;4.40;99.90;;;;;;5092434;28;20240;-84
2021/10/10 03:14:15;;;;;;;11.63;10.25;;;4.70;99.90;;;;;;5092145;28;20212;-84
2021/10/10 03:17:02;;;;;;;13.10;11.35;;;;;;;;;;5092360;28;20938;-84
2021/10/10 03:19:44;;;;;;;11.50;9.63;;;;;;;;;;5093460;28;20674;-84
2021/10/10 03:22:31;;;;;;;13.52;10.80;;;4.90;99.90;;;;;;5092298;28;20206;-84
2021/10/10 03:25:18;;;;;;;16.17;11.05;;;;;;;;;;5091777;28;20238;-84
2021/10/10 03:28:05;;;;;;;15.13;12.00;;;4.90;99.90;;;;;;5092562;28;20196;-85
2021/10/10 03:30:53;;;;;;;18.38;12.05;;;5.40;99.90;;;;;;5092383;28;20225;-84
2021/10/10 03:33:34;;;;;;;18.00;12.15;;;4.80;99.90;;;;;;5092654;28;20195;-83
2021/10/10 03:36:21;;;;;;;13.43;11.10;;;4.80;99.90;;;;;;5091773;28;20213;-83
2021/10/10 03:39:07;;;;;;;15.77;12.77;;;5.60;99.90;;;;;;5092507;28;20285;-84
2021/10/10 03:41:54;;;;;;;20.90;11.60;;;5.10;99.90;;;;;;5092672;28;20297;-83
2021/10/10 03:44:40;;;;;;;19.23;11.93;;;;;;;;;;5092987;28;20283;-83
2021/10/10 03:47:17;;;;;;;19.90;12.70;;;4.90;99.90;;;;;;5092449;28;20248;-84
2021/10/10 03:49:55;;;;;;;14.77;11.75;;;4.80;99.90;;;;;;5093007;28;20194;-84
2021/10/10 03:52:42;;;;;;;17.55;13.55;;;4.70;99.90;;;;;;5091764;28;20231;-84
2021/10/10 03:55:32;;;;;;;14.93;11.85;;;4.60;99.90;;;;;;5091383;28;20206;-84
2021/10/10 03:58:20;;;;;;;14.85;11.77;;;4.40;99.90;;;;;;5090480;28;20207;-83
2021/10/10 04:01:07;;;;;;;14.38;11.02;;;4.70;99.90;;;;;;5091449;28;20242;-83
2021/10/10 04:03:48;;;;;;;13.88;10.90;;;4.60;99.90;;;;;;5092239;28;20206;-83
2021/10/10 04:06:31;;;;;;;15.43;11.57;;;;;;;;;;5092190;28;20251;-83
2021/10/10 04:09:18;;;;;;;15.68;11.80;;;4.70;99.90;;;;;;5091733;28;20290;-83
2021/10/10 04:12:02;;;;;;;15.07;11.93;;;;;;;;;;5092201;28;20256;-83
2021/10/10 04:14:48;;;;;;;15.05;12.00;;;5.20;99.90;;;;;;5091324;28;20202;-83
2021/10/10 04:17:26;;;;;;;12.27;10.02;;;4.60;99.90;;;;;;5091502;28;20765;-84
2021/10/10 04:20:10;;;;;;;15.30;11.55;;;4.60;99.90;;;;;;5092551;28;20271;-83
2021/10/10 04:22:56;;;;;;;15.07;11.27;;;4.50;99.90;;;;;;5091203;28;20217;-83
2021/10/10 04:25:32;;;;;;;16.58;11.35;;;;;;;;;;5091766;28;20293;-83
2021/10/10 04:28:07;;;;;;;14.77;11.25;;;4.40;99.90;;;;;;5091774;28;20205;-84
2021/10/10 04:30:52;;;;;;;12.40;10.38;;;4.60;99.90;;;;;;5091653;28;20280;-83
2021/10/10 04:33:35;;;;;;;15.38;10.77;;;4.20;99.90;;;;;;5091947;28;20224;-84
2021/10/10 04:36:11;;;;;;;16.23;11.02;;;;;;;;;;5091214;28;20198;-84
2021/10/10 04:38:56;;;;;;;15.88;12.18;;;4.00;99.90;;;;;;5092024;28;20194;-83
2021/10/10 04:41:35;;;;;;;15.18;10.05;;;4.20;99.90;;;;;;5091809;28;20202;-83
2021/10/10 04:44:22;;;;;;;16.40;10.80;;;4.30;99.90;;;;;;5090496;28;20208;-81
2021/10/10 04:47:09;;;;;;;14.70;10.55;;;4.20;99.90;;;;;;5090363;28;20272;-83
2021/10/10 04:49:52;;;;;;;11.82;9.80;;;4.30;99.90;;;;;;5091739;28;20198;-84
2021/10/10 04:52:41;;;;;;;10.63;9.52;;;4.40;99.90;;;;;;5090211;28;20219;-83
2021/10/10 04:55:28;;;;;;;13.07;9.98;;;;;;;;;;5090453;28;20300;-83
2021/10/10 04:58:15;;;;;;;14.68;10.45;;;;;;;;;;5089938;28;20205;-83
2021/10/10 05:01:04;;;;;;;11.93;10.63;;;;;;;;;;5089925;28;20202;-84
2021/10/10 05:03:51;;;;;;;15.05;12.13;;;4.00;99.90;;;;;;5090765;28;20202;-83
2021/10/10 05:06:38;;;;;;;17.58;11.55;;;;;;;;;;5089843;28;20217;-83
2021/10/10 05:09:30;;;;;;;12.98;10.90;;;;;;;;;;5089858;28;20254;-84
2021/10/10 05:12:08;;;;;;;16.48;10.70;;;4.10;99.90;;;;;;5091081;28;20222;-83
2021/10/10 05:14:55;;;;;;;12.18;9.50;;;3.90;99.90;;;;;;5091096;28;20563;-83
2021/10/10 05:17:42;;;;;;;10.45;8.70;;;;;;;;;;5078980;28;20203;-83
2021/10/10 05:20:29;;;;;;;11.07;9.07;;;4.50;99.90;;;;;;5090301;28;20602;-83
2021/10/10 05:23:16;;;;;;;12.55;9.15;;;4.40;99.90;;;;;;5088344;28;20290;-83
2021/10/10 05:26:07;;;;;;;17.77;11.00;;;4.20;99.90;;;;;;5086302;28;20199;-83
2021/10/10 05:28:52;;;;;;;11.20;9.93;;;4.10;99.90;;;;;;5087742;28;20194;-83
2021/10/10 05:31:36;;;;;;;11.02;9.52;;;4.60;99.90;;;;;;5085017;28;20309;-83
2021/10/10 05:34:23;;;;;;;13.35;10.65;;;3.80;99.90;;;;;;5074652;28;20285;-84
2021/10/10 05:37:10;;;;;;;14.15;11.00;;;4.70;99.90;;;;;;5087689;28;20230;-84
2021/10/10 05:39:47;;;;;;;15.45;11.43;;;;;;;;;;5088608;28;20222;-84
2021/10/10 05:42:36;;;;;;;12.50;10.48;;;;;;;;;;5087966;28;20206;-84
2021/10/10 05:45:20;;;;;;;12.15;9.25;;;4.10;99.90;;;;;;5089053;28;20230;-84
2021/10/10 05:48:00;;;;;;;16.20;11.65;;;4.20;99.90;;;;;;5088133;28;20326;-83
2021/10/10 05:50:47;;;;;;;15.32;9.50;;;4.30;99.90;;;;;;5085861;28;20285;-84
2021/10/10 05:53:36;;;;;;;15.90;10.55;;;;;;;;;;5086775;28;20194;-84
2021/10/10 05:56:23;;;;;;;15.85;12.38;;;4.30;99.90;;;;;;5087445;28;20617;-82
2021/10/10 05:59:14;;;;;;;12.20;10.43;;;4.00;99.90;;;;;;5084900;28;20215;-83
2021/10/10 06:01:57;;;;;;;21.65;14.43;;;4.10;99.90;;;;;;5087390;28;20659;-83
2021/10/10 06:04:44;;;;;;;16.17;12.60;;;;;;;;;;5088858;28;20199;-84
2021/10/10 06:07:31;;;;;;;16.35;13.02;;;4.00;99.90;;;;;;5085675;28;20216;-83
2021/10/10 06:10:18;;;;;;;19.30;12.55;;;4.00;99.90;;;;;;5087300;28;20293;-84
2021/10/10 06:13:03;;;;;;;18.05;12.60;;;4.00;99.90;;;;;;5086874;28;20313;-84
2021/10/10 06:15:51;;;;;;;15.90;12.60;;;4.40;99.90;;;;;;5085377;28;20198;-84
2021/10/10 06:18:39;;;;;;;21.08;11.40;;;4.60;99.90;;;;;;5088382;28;20241;-84
2021/10/10 06:21:26;;;;;;;15.40;13.20;;;4.50;99.90;;;;;;5088969;28;20208;-84
2021/10/10 06:24:13;;;;;;;17.60;12.45;;;;;;;;;;5088759;28;20289;-84
2021/10/10 06:26:51;;;;;;;19.02;12.70;;;4.40;99.90;;;;;;5089390;28;20561;-84
2021/10/10 06:29:38;;;;;;;17.20;11.27;;;4.40;99.90;;;;;;5088819;28;20199;-84
2021/10/10 06:32:26;;;;;;;16.40;13.13;;;4.60;99.90;;;;;;5090155;28;20684;-84
2021/10/10 06:35:13;;;;;;;16.98;13.63;;;5.20;99.90;;;;;;5087883;28;20202;-84
2021/10/10 06:38:00;;;;;;;17.63;13.73;;;4.50;99.90;;;;;;5092143;28;20676;-84
2021/10/10 06:40:47;;;;;;;18.40;12.60;;;4.70;99.90;;;;;;5093596;28;20694;-84
2021/10/10 06:43:31;;;;;;;16.60;14.05;;;4.60;99.90;;;;;;5094232;28;20659;-84
2021/10/10 06:46:18;;;;;;;15.50;13.23;;;4.80;99.90;;;;;;5093256;28;20293;-83
2021/10/10 06:49:06;;;;;;;19.02;13.10;;;5.20;99.90;;;;;;5093435;28;20310;-84
2021/10/10 06:51:53;;;;;;;18.40;14.00;;;5.40;99.90;;;;;;5093881;28;20252;-85
2021/10/10 06:54:36;;;;;;;20.08;14.07;;;5.20;99.90;;;;;;5094074;28;20230;-84
2021/10/10 06:57:25;;;;;;;17.10;12.85;;;5.20;99.90;;;;;;5092553;28;20654;-84
2021/10/10 07:00:13;;;;;;;16.15;13.27;;;6.10;99.90;;;;;;5093167;28;20210;-84
2021/10/10 07:03:00;;;;;;;19.52;15.80;;;5.60;99.90;;;;;;5093702;28;20697;-84
2021/10/10 07:05:48;;;;;;;16.58;14.48;;;5.60;99.90;;;;;;5092781;28;20206;-84
2021/10/10 07:08:35;;;;;;;18.42;15.18;;;6.30;99.90;;;;;;5092132;28;20218;-84
2021/10/10 07:11:23;;;;;;;24.30;15.77;;;6.10;99.90;;;;;;5092729;28;20237;-85
2021/10/10 07:14:10;;;;;;;21.25;15.48;;;6.20;99.90;;;;;;5092575;28;20288;-83
2021/10/10 07:16:52;;;;;;;19.38;14.80;;;6.30;99.90;;;;;;5092987;28;20281;-84
2021/10/10 07:19:44;;;;;;;18.35;13.80;;;6.40;99.90;;;;;;5093000;28;20238;-84
2021/10/10 07:22:43;;;;;;;20.08;15.25;;;6.70;99.90;;;;;;5092896;28;20211;-83
2021/10/10 07:25:23;;;;;;;23.13;15.40;;;6.80;99.90;;;;;;5093466;28;20293;-84
2021/10/10 07:28:10;;;;;;;19.98;15.30;;;7.10;99.90;;;;;;5091621;28;20205;-84
2021/10/10 07:30:58;;;;;;;19.52;15.98;;;7.20;99.90;;;;;;5092069;28;20286;-83
2021/10/10 07:33:43;;;;;;;18.83;14.82;;;7.20;99.90;;;;;;5093108;28;20634;-83
2021/10/10 07:36:29;;;;;;;21.95;14.68;;;7.30;99.90;;;;;;5092833;28;20667;-84
2021/10/10 07:39:17;;;;;;;19.95;14.50;;;7.60;99.90;;;;;;5093256;28;20674;-83
2021/10/10 07:42:03;;;;;;;18.95;15.18;;;7.50;99.90;;;;;;5092349;28;20289;-83
2021/10/10 07:44:52;;;;;;;25.08;15.30;;;7.60;99.90;;;;;;5092200;28;20404;-85
2021/10/10 07:50:31;;;;;;;17.85;14.38;;;7.80;99.90;;;;;;5092957;28;20190;-85
2021/10/10 07:53:18;;;;;;;18.75;14.60;;;7.80;99.90;;;;;;5091848;28;20518;-85
2021/10/10 07:56:06;;;;;;;21.52;14.93;;;8.10;99.90;;;;;;5091394;28;20293;-84
2021/10/10 07:58:46;;;;;;;17.13;13.98;;;7.90;99.90;;;;;;5092682;28;20233;-85
2021/10/10 08:01:33;;;;;;;20.63;14.95;;;8.30;99.90;;;;;;5091601;28;20293;-85
2021/10/10 08:04:15;;;;;;;18.13;14.38;;;9.40;99.90;;;;;;5092241;28;20194;-85
2021/10/10 08:06:56;;;;;;;17.25;13.25;;;;;;;;;;5091919;28;20205;-85
2021/10/10 08:09:42;;;;;;;19.33;14.88;;;8.70;99.90;;;;;;5091798;28;20289;-85
2021/10/10 08:12:32;;;;;;;20.50;14.63;;;8.50;99.90;;;;;;5091429;28;20766;-84
2021/10/10 08:15:20;;;;;;;24.20;15.48;;;;;;;;;;5091498;28;20210;-85
2021/10/10 08:18:04;;;;;;;20.27;13.75;;;8.60;99.90;;;;;;5091697;28;20228;-84
2021/10/10 08:20:50;;;;;;;16.83;14.07;;;9.00;99.90;;;;;;5092349;28;20210;-85
2021/10/10 08:23:37;;;;;;;18.13;14.60;;;9.20;99.90;;;;;;5091331;28;20624;-84
2021/10/10 08:26:24;;;;;;;18.23;14.13;;;9.30;99.90;;;;;;5090588;28;20209;-84
2021/10/10 08:29:00;;;;;;;17.10;14.90;;;9.40;99.90;;;;;;5092287;28;20622;-84
2021/10/10 08:31:42;;;;;;;20.63;14.63;;;9.40;99.90;;;;;;5091987;28;20620;-85
2021/10/10 08:34:29;;;;;;;18.10;14.00;;;9.50;99.90;;;;;;5070771;28;20667;-84
2021/10/10 08:37:16;;;;;;;16.90;13.73;;;9.20;99.90;;;;;;5072494;28;20953;-85
2021/10/10 08:40:03;;;;;;;19.20;14.30;;;9.20;99.90;;;;;;5091217;28;20605;-85
2021/10/10 08:42:52;;;;;;;20.33;15.37;;;9.50;96.80;;;;;;5091933;28;20626;-85
2021/10/10 08:45:42;;;;;;;18.40;13.93;;;9.30;96.60;;;;;;5091790;28;20632;-85
2021/10/10 08:48:29;;;;;;;24.30;14.37;;;8.00;95.60;;;;;;5091081;28;20964;-85
2021/10/10 08:51:16;;;;;;;14.93;13.33;;;9.90;99.90;;;;;;5090851;28;20700;-85
2021/10/10 08:54:03;;;;;;;22.20;14.33;;;9.80;99.90;;;;;;5090706;28;20671;-85
2021/10/10 08:56:51;;;;;;;18.87;13.33;;;10.10;93.90;;;;;;5090397;28;20703;-84
2021/10/10 08:59:42;;;;;;;17.53;13.23;;;10.10;99.90;;;;;;5090600;28;20604;-85
2021/10/10 09:02:32;;;;;;;19.93;14.70;;;10.20;93.90;;;;;;5090246;28;20632;-85
2021/10/10 09:05:19;;;;;;;22.07;15.33;;;10.30;99.90;;;;;;5091626;28;20633;-85
2021/10/10 09:08:06;;;;;;;18.30;13.67;;;10.00;99.90;;;;;;5090208;28;21073;-85
2021/10/10 09:11:01;;;;;;;15.90;13.17;;;10.80;99.00;;;;;;5090418;28;21196;-85
2021/10/10 09:13:42;;;;;;;17.50;14.10;;;10.50;99.90;;;;;;5091653;28;21244;-84
2021/10/10 09:16:35;;;;;;;16.10;13.00;;;10.60;99.90;;;;;;5091094;28;21020;-85
2021/10/10 09:19:30;;;;;;;18.97;12.77;;;10.60;92.50;;;;;;5089898;28;20625;-84
2021/10/10 09:22:14;;;;;;;14.73;12.03;;;10.40;99.90;;;;;;5090978;28;21013;-85
2021/10/10 09:24:51;;;;;;;20.40;12.83;;;10.70;99.90;;;;;;5091125;28;20620;-85
2021/10/10 09:27:38;;;;;;;16.40;12.20;;;10.60;99.90;;;;;;5089073;28;21253;-84
2021/10/10 09:30:24;;;;;;;14.93;13.40;;;10.60;93.10;;;;;;5090974;28;20624;-85
2021/10/10 09:33:11;;;;;;;14.43;11.90;;;10.90;99.90;;;;;;5090634;28;20697;-85
2021/10/10 09:36:00;;;;;;;16.13;12.07;;;10.80;99.90;;;;;;5090915;28;20642;-85
2021/10/10 09:38:44;;;;;;;18.60;12.67;;;10.90;91.20;;;;;;5090622;28;20625;-85
2021/10/10 09:41:35;;;;;;;16.30;12.20;;;11.20;99.90;;;;;;5090287;28;20711;-85
2021/10/10 09:44:22;;;;;;;18.63;12.33;;;11.30;99.90;;;;;;5089164;28;20609;-84
2021/10/10 09:47:11;;;;;;;14.70;11.43;;;11.50;99.90;;;;;;5090204;28;21181;-86
2021/10/10 09:49:48;;;;;;;13.60;11.23;;;11.40;99.90;;;;;;5090840;28;20720;-84
2021/10/10 09:52:36;;;;;;;15.07;11.70;;;11.50;97.80;;;;;;5089678;28;21090;-84
2021/10/10 09:55:24;;;;;;;14.60;11.77;;;;;;;;;;5089433;28;20715;-85
2021/10/10 09:58:01;;;;;;;14.80;12.03;;;11.70;94.00;;;;;;5090341;28;21241;-85
2021/10/10 10:00:44;;;;;;;14.73;11.40;;;11.40;99.90;;;;;;5090444;28;20625;-85
2021/10/10 10:03:31;;;;;;;13.97;11.30;;;11.50;89.80;;;;;;5089551;28;21041;-85
2021/10/10 10:06:12;;;;;;;16.20;10.70;;;11.40;98.80;;;;;;5090336;28;20628;-84
2021/10/10 10:09:04;;;;;;;12.63;11.33;;;11.60;98.30;;;;;;5089401;28;21443;-85
2021/10/10 10:11:52;;;;;;;15.80;11.10;;;11.80;90.50;;;;;;5089719;28;20678;-83
2021/10/10 10:14:29;;;;;;;14.23;10.90;;;11.60;95.90;;;;;;5090428;28;20772;-84
2021/10/10 10:17:07;;;;;;;16.97;11.27;;;11.40;98.00;;;;;;5089854;28;20608;-85
2021/10/10 10:19:47;;;;;;;12.37;11.07;;;11.50;85.30;;;;;;5088859;28;20621;-86
2021/10/10 10:22:33;;;;;;;15.07;10.90;;;11.70;98.30;;;;;;5090638;28;20959;-86
2021/10/10 10:25:16;;;;;;;12.93;11.40;;;12.10;97.30;;;;;;5090091;28;20620;-86
2021/10/10 10:28:04;;;;;;;16.37;12.47;;;11.90;95.60;;;;;;5088366;28;20696;-85
2021/10/10 10:30:50;;;;;;;16.10;11.70;;;12.00;97.20;;;;;;5090195;28;20664;-86
2021/10/10 10:33:30;;;;;;;14.10;11.00;;;11.90;83.40;;;;;;5089704;28;20725;-86
2021/10/10 10:36:49;;;;;;;14.47;11.67;;;11.80;84.00;;;;;;5088904;28;20625;-86
2021/10/10 10:39:44;;;;;;;17.33;11.20;;;11.90;84.20;;;;;;5069015;28;20697;-86
2021/10/10 10:42:39;;;;;;;12.40;10.60;;;12.10;97.70;;;;;;5069882;28;20633;-86
2021/10/10 10:45:21;;;;;;;13.50;11.67;;;12.50;98.40;;;;;;5069674;28;20630;-87
2021/10/10 10:48:07;;;;;;;16.30;12.57;;;11.90;97.70;;;;;;5069097;28;20673;-86
2021/10/10 10:51:17;;;;;;;13.50;11.13;;;12.00;85.10;;;;;;5068900;28;20643;-86
2021/10/10 10:54:37;;;;;;;13.90;11.63;;;12.10;97.60;;;;;;5068926;28;20677;-87
2021/10/10 10:57:32;;;;;;;15.10;11.70;;;12.10;84.20;;;;;;5068978;28;20632;-86
2021/10/10 11:00:26;;;;;;;12.97;11.40;;;12.10;98.00;;;;;;5069064;28;20695;-87
2021/10/10 11:03:16;;;;;;;14.70;11.70;;;11.90;98.60;;;;;;5068505;28;20630;-87
2021/10/10 11:06:19;;;;;;;18.07;10.97;;;11.80;98.40;;;;;;5102411;28;20628;-87
2021/10/10 11:09:07;;;;;;;16.27;12.20;;;12.20;84.30;;;;;;5088809;28;20628;-87
2021/10/10 11:12:00;;;;;;;17.03;11.90;;;12.10;96.80;;;;;;5089144;28;20630;-88
2021/10/10 11:14:38;;;;;;;16.40;12.93;;;12.20;97.50;;;;;;5089716;28;20691;-87
2021/10/10 11:17:27;;;;;;;14.70;11.60;;;;;;;;;;5088328;28;20606;-87
2021/10/10 11:20:14;;;;;;;16.90;12.43;;;12.30;97.70;;;;;;5086267;28;21568;-85
2021/10/10 11:22:58;;;;;;;15.20;10.70;;;12.30;84.90;;;;;;5089323;28;20634;-87
2021/10/10 11:25:37;;;;;;;14.17;11.60;;;12.40;83.70;;;;;;5093504;28;20628;-87
2021/10/10 11:28:13;;;;;;;18.73;13.10;;;12.30;85.50;;;;;;5092881;28;20732;-86
2021/10/10 11:31:07;;;;;;;15.60;11.30;;;12.60;94.60;;;;;;5093474;28;20725;-87
2021/10/10 11:33:58;;;;;;;13.23;10.83;;;12.30;94.90;;;;;;5093316;28;21317;-86
2021/10/10 11:36:48;;;;;;;13.63;10.93;;;11.80;89.70;;;;;;5091730;28;21192;-87
2021/10/10 11:39:34;;;;;;;14.03;11.77;;;12.20;85.10;;;;;;5073091;28;20609;-88
2021/10/10 11:42:21;;;;;;;12.87;10.30;;;12.50;97.90;;;;;;5086094;28;21169;-87
2021/10/10 11:45:08;;;;;;;12.37;10.53;;;12.30;94.60;;;;;;5072636;28;21010;-88
2021/10/10 11:47:55;;;;;;;16.60;11.87;;;;;;;;;;5071338;28;20652;-88
2021/10/10 11:50:42;;;;;;;16.43;12.30;;;12.70;82.80;;;;;;5072721;28;20611;-86
2021/10/10 11:53:43;;;;;;;14.87;11.10;;;12.90;96.20;;;;;;5085610;28;20719;-86
2021/10/10 11:56:31;;;;;;;15.30;11.73;;;12.90;81.00;;;;;;5085801;28;20604;-87
2021/10/10 11:59:18;;;;;;;11.60;10.40;;;;;;;;;;5071842;28;21263;-88
2021/10/10 12:02:05;;;;;;;13.23;10.27;;;13.30;96.90;;;;;;5071792;28;20982;-87
2021/10/10 12:05:02;;;;;;;11.07;9.87;;;12.60;96.50;;;;;;5072610;28;20641;-87
2021/10/10 12:07:53;;;;;;;17.90;9.97;;;12.80;80.50;;;;;;5071325;28;20690;-88
2021/10/10 12:10:42;;;;;;;15.13;10.40;;;;;;;;;;5085534;28;20735;-87
2021/10/10 12:13:29;;;;;;;12.23;10.80;;;12.70;92.80;;;;;;5071809;28;20749;-87
2021/10/10 12:16:16;;;;;;;14.10;9.63;;;;;;;;;;5072319;28;20713;-87
2021/10/10 12:18:59;;;;;;;11.03;9.27;;;13.00;96.70;;;;;;5072209;28;21127;-88
2021/10/10 12:21:46;;;;;;;12.27;10.03;;;12.90;93.10;;;;;;5085332;28;20647;-86
2021/10/10 12:24:44;;;;;;;15.17;11.17;;;12.60;96.00;;;;;;5085418;28;21061;-88
2021/10/10 12:27:29;;;;;;;12.67;9.80;;;12.80;96.40;;;;;;5071820;28;20686;-88
2021/10/10 12:30:12;;;;;;;10.80;9.17;;;;;;;;;;5071878;28;20727;-88
2021/10/10 12:32:58;;;;;;;11.17;9.27;;;13.00;79.70;;;;;;5080570;28;20661;-88
2021/10/10 12:35:52;;;;;;;12.50;10.37;;;;;;;;;;5091415;28;20654;-88
2021/10/10 12:38:42;;;;;;;15.90;10.83;;;13.20;77.10;;;;;;5091137;28;20615;-87
2021/10/10 12:41:31;;;;;;;13.10;10.07;;;13.80;94.80;;;;;;5091805;28;20990;-88
2021/10/10 12:44:17;;;;;;;18.43;10.10;;;13.20;96.10;;;;;;5092176;28;20671;-88
2021/10/10 12:47:06;;;;;;;12.93;10.90;;;;;;;;;;5090522;28;20610;-89
2021/10/10 12:49:56;;;;;;;12.73;10.90;;;13.10;77.40;;;;;;5090473;28;20713;-87
2021/10/10 12:52:43;;;;;;;11.93;9.87;;;13.00;96.30;;;;;;5091968;28;20629;-88
2021/10/10 12:55:30;;;;;;;11.30;9.90;;;13.20;80.50;;;;;;5090777;28;20663;-89
2021/10/10 12:58:14;;;;;;;14.33;11.33;;;13.00;93.10;;;;;;5090762;28;20979;-89
2021/10/10 13:01:00;;;;;;;13.23;11.33;;;;;;;;;;5091767;28;20610;-87
2021/10/10 13:03:47;;;;;;;13.83;10.13;;;13.30;92.80;;;;;;5091624;28;20718;-87
2021/10/10 13:06:28;;;;;;;13.60;10.90;;;;;;;;;;5090545;28;20624;-88
2021/10/10 13:09:16;;;;;;;12.00;9.33;;;13.40;78.50;;;;;;5090844;28;20648;-88
2021/10/10 13:12:03;;;;;;;14.43;10.53;;;13.00;93.30;;;;;;5090458;28;20689;-87
2021/10/10 13:14:44;;;;;;;10.70;9.57;;;13.00;95.80;;;;;;5091397;28;20650;-88
2021/10/10 13:17:30;;;;;;;14.80;10.43;;;13.20;96.60;;;;;;5091005;28;20766;-88
2021/10/10 13:20:17;;;;;;;14.40;10.33;;;;;;;;;;5090584;28;20713;-88
2021/10/10 13:23:05;;;;;;;13.90;9.80;;;;;;;;;;5090836;28;20619;-88
2021/10/10 13:25:52;;;;;;;14.67;10.17;;;;;;;;;;5090868;28;21142;-89
2021/10/10 13:28:37;;;;;;;12.20;9.90;;;13.40;92.90;;;;;;5090111;28;20612;-89
2021/10/10 13:31:25;;;;;;;14.33;10.83;;;13.90;95.70;;;;;;5089925;28;20726;-87
2021/10/10 13:34:12;;;;;;;17.47;10.20;;;;;;;;;;5090199;28;20667;-87
2021/10/10 13:36:55;;;;;;;11.20;9.33;;;13.40;95.80;;;;;;5090625;28;20688;-88
2021/10/10 13:39:42;;;;;;;12.13;10.83;;;;;;;;;;5069055;28;20712;-90
2021/10/10 13:42:30;;;;;;;12.60;10.40;;;;;;;;;;5069944;28;21048;-88
2021/10/10 13:45:17;;;;;;;10.33;8.90;;;;;;;;;;5069852;28;20609;-88
2021/10/10 13:48:06;;;;;;;11.77;8.53;;;13.30;78.70;;;;;;5081134;28;20621;-87
2021/10/10 13:50:54;;;;;;;15.37;9.73;;;13.20;77.70;;;;;;5086410;28;20641;-88
2021/10/10 13:53:41;;;;;;;10.30;8.17;;;;;;;;;;5088491;28;20634;-89
2021/10/10 13:56:29;;;;;;;12.00;7.90;;;;;;;;;;5087952;28;20604;-88
2021/10/10 13:59:16;;;;;;;9.93;7.97;;;;;;;;;;5087309;28;20658;-88
2021/10/10 14:02:03;;;;;;;11.47;8.97;;;;;;;;;;5088103;28;21113;-89
2021/10/10 14:04:51;;;;;;;11.70;9.17;;;;;;;;;;5085494;28;20647;-89
2021/10/10 14:07:39;;;;;;;9.43;8.50;;;13.30;92.60;;;;;;5086559;28;20712;-88
2021/10/10 14:10:26;;;;;;;12.30;8.50;;;13.40;92.40;;;;;;5088368;28;20612;-89
2021/10/10 14:13:14;;;;;;;12.67;9.40;;;13.50;76.40;;;;;;5084294;28;20608;-89
2021/10/10 14:16:01;;;;;;;9.00;8.00;;;13.40;95.30;;;;;;5087325;28;20982;-89
2021/10/10 14:18:48;;;;;;;9.27;7.80;;;13.20;95.00;;;;;;5088218;28;20616;-90
2021/10/10 14:21:37;;;;;;;9.60;7.07;;;13.30;93.80;;;;;;5087880;28;20719;-88
2021/10/10 14:24:25;;;;;;;12.43;7.13;;;13.40;93.80;;;;;;5087465;28;20609;-89
2021/10/10 14:27:13;;;;;;;11.60;7.53;;;;;;;;;;5088496;28;21290;-89